Terminal Aerodrome Forecast
Issued by NWS Central Illinois

Home | Current Version | Previous Version | Text Only | Print | Product List | Glossary On
Versions: 1 2 3 4 5 6 7 8 9 10 11 12 13 14 15 16 17 18 19 20 21 22 23 24 25 26 27 28 29 30
000
FTUS43 KILX 232338
TAFSPI
TAF
KSPI 232338Z 2400/2424 10010KT P6SM BKN200
     FM240300 13009KT P6SM BKN050
     FM240600 16011G20KT P6SM BKN045
     FM241200 18013G23KT P6SM BKN025
     FM241700 22015G25KT P6SM BKN025
     FM242200 25017G27KT P6SM BKN040=

USA.gov is the U.S. government's official web portal to all federal, state and local government web resources and services.